createdAt,value
2022-09-20T00:00:30.000Z,92.9
2022-09-20T00:01:46.000Z,93
2022-09-20T00:03:02.000Z,92.9
2022-09-20T00:04:19.000Z,93.1
2022-09-20T00:05:35.000Z,93.1
2022-09-20T00:06:51.000Z,93.2
2022-09-20T00:08:06.000Z,93.1
2022-09-20T00:09:23.000Z,93.1
2022-09-20T00:10:39.000Z,93
2022-09-20T00:11:55.000Z,93.2
2022-09-20T00:13:11.000Z,93.1
2022-09-20T00:14:28.000Z,93
2022-09-20T00:15:44.000Z,93.2
2022-09-20T00:17:00.000Z,93.1
2022-09-20T00:18:16.000Z,93.1
2022-09-20T00:19:33.000Z,93.3
2022-09-20T00:20:49.000Z,93.1
2022-09-20T00:22:05.000Z,93
2022-09-20T00:23:21.000Z,92.9
2022-09-20T00:24:36.000Z,92.8
2022-09-20T00:25:53.000Z,93.1
2022-09-20T00:27:09.000Z,92.9
2022-09-20T00:28:25.000Z,93
2022-09-20T00:29:41.000Z,92.8
2022-09-20T00:30:58.000Z,92.8
2022-09-20T00:32:14.000Z,92.9
2022-09-20T00:33:30.000Z,93.1
2022-09-20T00:34:46.000Z,93.3
2022-09-20T00:36:03.000Z,93.4
2022-09-20T00:37:19.000Z,93.5
2022-09-20T00:38:35.000Z,93.7
2022-09-20T00:39:51.000Z,93.8
2022-09-20T00:41:07.000Z,93.7
2022-09-20T00:42:23.000Z,93.7
2022-09-20T00:43:39.000Z,93.5
2022-09-20T00:44:55.000Z,93.5
2022-09-20T00:46:11.000Z,93.2
2022-09-20T00:47:28.000Z,93.5
2022-09-20T00:48:44.000Z,93.3
2022-09-20T00:50:00.000Z,93.5
2022-09-20T00:51:16.000Z,93.6
2022-09-20T00:52:33.000Z,93.6
2022-09-20T00:53:49.000Z,93.7
2022-09-20T00:55:05.000Z,93.6
2022-09-20T00:56:21.000Z,93.7
2022-09-20T00:57:37.000Z,94
2022-09-20T00:58:53.000Z,94
2022-09-20T01:00:09.000Z,93.9
2022-09-20T01:01:25.000Z,94
2022-09-20T01:02:42.000Z,94.3
2022-09-20T01:03:58.000Z,94.3
2022-09-20T01:05:14.000Z,94.7
2022-09-20T01:06:30.000Z,94.7
2022-09-20T01:07:46.000Z,94.5
2022-09-20T01:09:03.000Z,94.8
2022-09-20T01:10:19.000Z,95
2022-09-20T01:11:35.000Z,95.1
2022-09-20T01:12:51.000Z,95.3
2022-09-20T01:14:07.000Z,95.2
2022-09-20T01:15:23.000Z,95.4
2022-09-20T01:16:39.000Z,95.4
2022-09-20T01:17:55.000Z,95.5
2022-09-20T01:19:12.000Z,95.3
2022-09-20T01:20:28.000Z,95.3
2022-09-20T01:21:44.000Z,95.6
2022-09-20T01:23:00.000Z,95.5
2022-09-20T01:24:17.000Z,95.5
2022-09-20T01:25:33.000Z,95
2022-09-20T01:26:49.000Z,95.2
2022-09-20T01:28:05.000Z,95.1
2022-09-20T01:29:21.000Z,95.4
2022-09-20T01:30:37.000Z,95.2
2022-09-20T01:31:53.000Z,94.8
2022-09-20T01:33:09.000Z,94.8
2022-09-20T01:34:25.000Z,94.7
2022-09-20T01:35:42.000Z,94.3
2022-09-20T01:36:58.000Z,94.3
2022-09-20T01:38:14.000Z,94.7
2022-09-20T01:39:30.000Z,94.3
2022-09-20T01:40:47.000Z,94.2
2022-09-20T01:42:03.000Z,94
2022-09-20T01:43:19.000Z,94.1
2022-09-20T01:44:35.000Z,94
2022-09-20T01:45:52.000Z,94.1
2022-09-20T01:47:07.000Z,94.1
2022-09-20T01:48:23.000Z,93.9
2022-09-20T01:49:39.000Z,93.9
2022-09-20T01:50:55.000Z,93.8
2022-09-20T01:52:12.000Z,93.8
2022-09-20T01:53:28.000Z,93.9
2022-09-20T01:54:44.000Z,93.6
2022-09-20T01:56:00.000Z,93.6
2022-09-20T01:57:17.000Z,93.5
2022-09-20T01:58:33.000Z,93.4
2022-09-20T01:59:49.000Z,93.5
2022-09-20T02:01:05.000Z,93.7
2022-09-20T02:02:22.000Z,93.9
2022-09-20T02:03:37.000Z,93.5
2022-09-20T02:04:53.000Z,93.6
2022-09-20T02:06:09.000Z,93.7
2022-09-20T02:07:26.000Z,93.8
2022-09-20T02:08:42.000Z,93.9
2022-09-20T02:09:58.000Z,94
2022-09-20T02:11:14.000Z,94.1
2022-09-20T02:12:30.000Z,94.8
2022-09-20T02:13:47.000Z,94.4
2022-09-20T02:15:03.000Z,93.8
2022-09-20T02:16:19.000Z,94.1
2022-09-20T02:17:35.000Z,94.3
2022-09-20T02:18:52.000Z,94.2
2022-09-20T02:20:07.000Z,94.6
2022-09-20T02:21:23.000Z,95
2022-09-20T02:22:39.000Z,94.9
2022-09-20T02:23:56.000Z,95
2022-09-20T02:25:12.000Z,94.8
2022-09-20T02:26:28.000Z,95.1
2022-09-20T02:27:44.000Z,95
2022-09-20T02:29:00.000Z,95.2
2022-09-20T02:30:17.000Z,95.5
2022-09-20T02:31:33.000Z,95.3
2022-09-20T02:32:49.000Z,95.3
2022-09-20T02:34:05.000Z,95.5
2022-09-20T02:35:22.000Z,95.3
2022-09-20T02:36:37.000Z,95
2022-09-20T02:37:53.000Z,95
2022-09-20T02:39:09.000Z,94.8
2022-09-20T02:40:26.000Z,95.3
2022-09-20T02:41:42.000Z,95.3
2022-09-20T02:42:58.000Z,95.3
2022-09-20T02:44:14.000Z,95
2022-09-20T02:45:31.000Z,95
2022-09-20T02:46:47.000Z,94.7
2022-09-20T02:48:03.000Z,94.7
2022-09-20T02:49:19.000Z,94.4
2022-09-20T02:50:35.000Z,94.2
2022-09-20T02:51:52.000Z,94.5
2022-09-20T02:53:07.000Z,94.3
2022-09-20T02:54:23.000Z,94.3
2022-09-20T02:55:39.000Z,93.9
2022-09-20T02:56:56.000Z,94
2022-09-20T02:58:12.000Z,93.8
2022-09-20T02:59:28.000Z,94
2022-09-20T03:00:44.000Z,94.1
2022-09-20T03:02:01.000Z,94.3
2022-09-20T03:03:17.000Z,93.8
2022-09-20T03:04:33.000Z,93.8
2022-09-20T03:05:49.000Z,93.8
2022-09-20T03:07:06.000Z,94
2022-09-20T03:08:22.000Z,94
2022-09-20T03:09:37.000Z,94
2022-09-20T03:10:53.000Z,93.7
2022-09-20T03:12:09.000Z,94.1
2022-09-20T03:13:26.000Z,94.1
2022-09-20T03:14:42.000Z,93.9
2022-09-20T03:15:58.000Z,94
2022-09-20T03:17:14.936Z,93.9
2022-09-20T03:18:31.000Z,94.1
2022-09-20T03:19:47.000Z,94.1
2022-09-20T03:21:03.000Z,94.3
2022-09-20T03:22:19.000Z,94.2
2022-09-20T03:23:36.000Z,94.1
2022-09-20T03:24:52.000Z,94
2022-09-20T03:26:07.000Z,94.2
2022-09-20T03:27:23.000Z,94.1
2022-09-20T03:28:40.000Z,94.1
2022-09-20T03:29:56.000Z,94.5
2022-09-20T03:31:12.000Z,94.6
2022-09-20T03:32:28.000Z,94.9
2022-09-20T03:33:44.000Z,94.9
2022-09-20T03:35:01.000Z,95.5
2022-09-20T03:36:17.000Z,95.3
2022-09-20T03:37:33.000Z,95.5
2022-09-20T03:38:49.000Z,95.5
2022-09-20T03:40:06.000Z,95.7
2022-09-20T03:41:22.000Z,95.7
2022-09-20T03:42:37.000Z,95.8
2022-09-20T03:43:53.000Z,96
2022-09-20T03:45:10.000Z,96.1
2022-09-20T03:46:26.000Z,96.3
2022-09-20T03:47:42.000Z,96.3
2022-09-20T03:48:58.000Z,96.5
2022-09-20T03:50:14.000Z,96.8
2022-09-20T03:51:30.000Z,96.8
2022-09-20T03:52:46.000Z,96.9
2022-09-20T03:54:02.000Z,96.9
2022-09-20T03:55:19.000Z,96.8
2022-09-20T03:56:35.000Z,96.6
2022-09-20T03:57:51.000Z,96.5
2022-09-20T03:59:07.000Z,96.5
2022-09-20T04:00:23.000Z,96.8
2022-09-20T04:01:40.000Z,97
2022-09-20T04:02:56.000Z,97.3
2022-09-20T04:04:12.000Z,97.4
2022-09-20T04:05:28.000Z,97.4
2022-09-20T04:06:45.000Z,97.8
2022-09-20T04:08:00.000Z,98
2022-09-20T04:09:16.000Z,98
2022-09-20T04:10:32.000Z,98.4
2022-09-20T04:11:49.000Z,98.6
2022-09-20T04:13:05.000Z,99
2022-09-20T04:14:21.000Z,99.2
2022-09-20T04:15:37.000Z,99.5
2022-09-20T04:16:53.000Z,100
2022-09-20T04:18:10.000Z,100
2022-09-20T04:19:26.000Z,99.8
2022-09-20T04:21:58.000Z,99.3
2022-09-20T04:23:15.000Z,99.2
2022-09-20T04:24:30.000Z,99.1
2022-09-20T04:25:46.000Z,99
2022-09-20T04:27:02.000Z,98.8
2022-09-20T04:28:19.000Z,98.7
2022-09-20T04:29:35.000Z,98.8
2022-09-20T04:30:51.000Z,99.1
2022-09-20T04:32:07.000Z,99.2
2022-09-20T04:33:24.000Z,99
2022-09-20T04:34:40.000Z,99.2
2022-09-20T04:35:56.000Z,99.7
2022-09-20T04:37:12.000Z,99.7
2022-09-20T04:38:28.000Z,99.8
2022-09-20T04:39:45.000Z,99.6
2022-09-20T04:41:00.000Z,99.6
2022-09-20T04:42:16.000Z,99.7
2022-09-20T04:43:32.000Z,100
2022-09-20T04:44:49.000Z,100
2022-09-20T04:46:05.000Z,100
2022-09-20T04:47:21.000Z,100
2022-09-20T04:48:37.000Z,100
2022-09-20T04:49:54.000Z,100
2022-09-20T04:51:10.000Z,100
2022-09-20T04:52:26.000Z,100
2022-09-20T04:53:42.000Z,100
2022-09-20T04:54:59.000Z,100
2022-09-20T04:56:15.000Z,100
2022-09-20T04:57:30.000Z,100
2022-09-20T04:58:46.000Z,100
2022-09-20T05:00:02.000Z,100
2022-09-20T05:01:19.000Z,100
2022-09-20T05:02:35.000Z,100
2022-09-20T05:03:51.000Z,100
2022-09-20T05:05:07.000Z,100
2022-09-20T05:06:24.000Z,100
2022-09-20T05:07:40.000Z,100
2022-09-20T05:08:56.000Z,100
2022-09-20T05:10:12.000Z,100
2022-09-20T05:11:29.000Z,100
2022-09-20T05:12:45.000Z,100
2022-09-20T05:14:00.000Z,100
2022-09-20T05:15:16.000Z,100
2022-09-20T05:16:33.000Z,100
2022-09-20T05:17:49.000Z,100
2022-09-20T05:19:05.000Z,100
2022-09-20T05:20:21.000Z,100
2022-09-20T05:21:37.000Z,100
2022-09-20T05:22:54.000Z,100
2022-09-20T05:24:10.000Z,100
2022-09-20T05:25:26.000Z,100
2022-09-20T05:26:42.000Z,100
2022-09-20T05:27:59.000Z,100
2022-09-20T05:29:15.000Z,100
2022-09-20T05:30:30.000Z,100
2022-09-20T05:31:46.000Z,100
2022-09-20T05:33:03.000Z,100
2022-09-20T05:34:19.000Z,100
2022-09-20T05:35:35.000Z,100
2022-09-20T05:36:51.000Z,100
2022-09-20T05:38:08.000Z,100
2022-09-20T05:39:24.000Z,100
2022-09-20T05:40:40.000Z,100
2022-09-20T05:41:56.000Z,100
2022-09-20T05:43:12.000Z,100
2022-09-20T05:44:29.000Z,100
2022-09-20T05:45:45.000Z,100
2022-09-20T05:47:00.000Z,100
2022-09-20T05:48:16.000Z,100
2022-09-20T05:49:33.000Z,100
2022-09-20T05:50:49.000Z,100
2022-09-20T05:52:05.000Z,100
2022-09-20T05:53:21.000Z,100
2022-09-20T05:54:38.000Z,100
2022-09-20T05:55:54.000Z,100
2022-09-20T05:57:10.000Z,100
2022-09-20T05:58:26.000Z,100
2022-09-20T05:59:43.000Z,99.8
2022-09-20T06:00:59.000Z,99.5
2022-09-20T06:02:15.000Z,99
2022-09-20T06:03:30.000Z,98.7
2022-09-20T06:04:46.000Z,98.4
2022-09-20T06:06:03.000Z,98
2022-09-20T06:07:19.000Z,97.6
2022-09-20T06:08:35.000Z,97.5
2022-09-20T06:09:51.000Z,97.1
2022-09-20T06:11:08.000Z,97
2022-09-20T06:12:24.000Z,96.6
2022-09-20T06:13:40.000Z,96.5
2022-09-20T06:14:56.000Z,96.2
2022-09-20T06:16:13.000Z,96
2022-09-20T06:17:29.000Z,95.9
2022-09-20T06:18:45.000Z,95.7
2022-09-20T06:20:00.000Z,95.5
2022-09-20T06:21:17.000Z,95.3
2022-09-20T06:22:33.000Z,95.2
2022-09-20T06:23:49.000Z,95.2
2022-09-20T06:25:05.000Z,95.3
2022-09-20T06:26:21.000Z,95.2
2022-09-20T06:27:38.000Z,95.3
2022-09-20T06:28:54.000Z,95.4
2022-09-20T06:30:10.000Z,95.3
2022-09-20T06:31:26.000Z,95.3
2022-09-20T06:32:43.000Z,95.3
2022-09-20T06:33:59.000Z,95
2022-09-20T06:35:15.000Z,95
2022-09-20T06:36:30.000Z,94.8
2022-09-20T06:37:47.000Z,94.8
2022-09-20T06:39:03.000Z,94.6
2022-09-20T06:40:19.000Z,94.6
2022-09-20T06:41:35.000Z,94.3
2022-09-20T06:42:52.000Z,94.2
2022-09-20T06:44:08.000Z,94.2
2022-09-20T06:45:24.000Z,94
2022-09-20T06:46:40.000Z,93.6
2022-09-20T06:47:56.000Z,93.3
2022-09-20T06:49:13.000Z,93.3
2022-09-20T06:50:29.000Z,93.2
2022-09-20T06:51:45.000Z,93.1
2022-09-20T06:53:00.000Z,92.4
2022-09-20T06:54:17.000Z,92.5
2022-09-20T06:55:33.000Z,92.3
2022-09-20T06:56:49.000Z,92
2022-09-20T06:58:05.000Z,91.8
2022-09-20T06:59:22.000Z,91.6
2022-09-20T07:00:38.000Z,91.5
2022-09-20T07:01:54.000Z,91.1
2022-09-20T07:03:10.000Z,91
2022-09-20T07:04:27.000Z,90.7
2022-09-20T07:05:43.000Z,90.5
2022-09-20T07:06:59.000Z,90.7
2022-09-20T07:08:15.000Z,90.2
2022-09-20T07:09:31.000Z,89.9
2022-09-20T07:10:47.000Z,89.8
2022-09-20T07:12:03.000Z,89.6
2022-09-20T07:13:19.000Z,89.4
2022-09-20T07:14:35.000Z,89.2
2022-09-20T07:15:52.000Z,89.2
2022-09-20T07:17:08.000Z,89.4
2022-09-20T07:18:24.000Z,88.5
2022-09-20T07:19:40.000Z,88.5
2022-09-20T07:20:57.000Z,88.1
2022-09-20T07:22:13.000Z,88
2022-09-20T07:23:29.000Z,88.1
2022-09-20T07:24:45.000Z,87.4
2022-09-20T07:26:02.000Z,87.3
2022-09-20T07:27:17.000Z,86.5
2022-09-20T07:28:33.000Z,86.6
2022-09-20T07:29:48.000Z,85.7
2022-09-20T07:31:04.000Z,85.7
2022-09-20T07:32:20.000Z,86.3
2022-09-20T07:33:35.000Z,85.1
2022-09-20T07:34:50.000Z,84.5
2022-09-20T07:36:07.000Z,84.3
2022-09-20T07:37:23.000Z,84.2
2022-09-20T07:38:39.000Z,83.2
2022-09-20T07:39:55.000Z,83.3
2022-09-20T07:41:11.000Z,84.1
2022-09-20T07:42:28.000Z,82.8
2022-09-20T07:43:44.000Z,83.6
2022-09-20T07:45:00.000Z,82.5
2022-09-20T07:46:16.000Z,82.6
2022-09-20T07:47:33.000Z,83.2
2022-09-20T07:48:49.000Z,83.1
2022-09-20T07:50:05.000Z,82.7
2022-09-20T07:51:20.000Z,81.7
2022-09-20T07:52:37.000Z,81.3
2022-09-20T07:53:53.000Z,81.2
2022-09-20T07:55:09.000Z,80.8
2022-09-20T07:56:25.000Z,80.7
2022-09-20T07:57:41.000Z,81.2
2022-09-20T07:58:58.000Z,81.4
2022-09-20T08:00:14.000Z,81.4
2022-09-20T08:01:30.000Z,80.7
2022-09-20T08:02:46.000Z,78.9
2022-09-20T08:04:03.000Z,79.1
2022-09-20T08:05:18.000Z,78.8
2022-09-20T08:06:34.000Z,79.4
2022-09-20T08:07:50.000Z,79
2022-09-20T08:09:07.000Z,78.2
2022-09-20T08:10:23.000Z,77.7
2022-09-20T08:11:39.000Z,76.9
2022-09-20T08:12:55.000Z,76.5
2022-09-20T08:14:12.000Z,76.1
2022-09-20T08:15:28.000Z,77.4
2022-09-20T08:16:44.000Z,77.5
2022-09-20T08:18:00.000Z,78
2022-09-20T08:19:16.000Z,77.6
2022-09-20T08:20:33.000Z,74.9
2022-09-20T08:21:48.000Z,74.7
2022-09-20T08:23:04.000Z,75.1
2022-09-20T08:24:20.000Z,74.7
2022-09-20T08:25:37.000Z,73.5
2022-09-20T08:26:53.000Z,73
2022-09-20T08:28:09.000Z,73.3
2022-09-20T08:29:25.000Z,72.3
2022-09-20T08:30:42.000Z,72.8
2022-09-20T08:31:58.000Z,72.7
2022-09-20T08:33:14.000Z,73.6
2022-09-20T08:34:30.000Z,74.1
2022-09-20T08:35:47.000Z,73
2022-09-20T08:37:03.000Z,73.7
2022-09-20T08:38:18.000Z,73.6
2022-09-20T08:39:34.000Z,73.2
2022-09-20T08:40:50.000Z,73.2
2022-09-20T08:42:07.000Z,74.2
2022-09-20T08:43:23.000Z,73.6
2022-09-20T08:44:39.000Z,74.2
2022-09-20T08:45:55.000Z,74.3
2022-09-20T08:47:12.000Z,74.5
2022-09-20T08:48:28.000Z,74.6
2022-09-20T08:49:44.000Z,74.2
2022-09-20T08:51:00.000Z,74.3
2022-09-20T08:52:17.000Z,73.5
2022-09-20T08:53:33.000Z,74.1
2022-09-20T08:54:48.000Z,74.1
2022-09-20T08:56:04.000Z,73.2
2022-09-20T08:57:21.000Z,73.2
2022-09-20T08:58:37.000Z,73.1
2022-09-20T08:59:53.000Z,73.3
2022-09-20T09:01:09.000Z,71.4
2022-09-20T09:02:25.000Z,72.4
2022-09-20T09:03:42.000Z,73.1
2022-09-20T09:04:58.000Z,73.2
2022-09-20T09:06:14.000Z,72.3
2022-09-20T09:07:30.000Z,73.3
2022-09-20T09:08:47.000Z,71.7
2022-09-20T09:10:03.000Z,71.7
2022-09-20T09:11:18.000Z,72.1
2022-09-20T09:12:34.000Z,72.3
2022-09-20T09:13:51.000Z,72.5
2022-09-20T09:15:07.000Z,72.8
2022-09-20T09:16:23.000Z,73.4
2022-09-20T09:17:39.000Z,73.7
2022-09-20T09:18:56.000Z,73.9
2022-09-20T09:20:12.000Z,74.2
2022-09-20T09:21:28.000Z,74
2022-09-20T09:22:44.000Z,74.4
2022-09-20T09:24:00.000Z,74.9
2022-09-20T09:25:17.000Z,75.5
2022-09-20T09:26:33.000Z,76
2022-09-20T09:27:48.000Z,76.2
2022-09-20T09:29:04.000Z,76.8
2022-09-20T09:30:21.000Z,77.1
2022-09-20T09:31:37.000Z,77
2022-09-20T09:32:53.000Z,76.5
2022-09-20T09:34:08.000Z,75.9
2022-09-20T09:35:24.000Z,75.6
2022-09-20T09:36:39.000Z,73.8
2022-09-20T09:37:54.000Z,73.6
2022-09-20T09:39:10.000Z,73.6
2022-09-20T09:40:27.000Z,73.3
2022-09-20T09:41:43.000Z,72.2
2022-09-20T09:42:59.000Z,72.5
2022-09-20T09:44:15.000Z,70.8
2022-09-20T09:45:32.000Z,70.9
2022-09-20T09:46:48.000Z,71.4
2022-09-20T09:48:04.000Z,70.2
2022-09-20T09:49:20.000Z,69.7
2022-09-20T09:50:36.000Z,69
2022-09-20T09:51:53.000Z,68.9
2022-09-20T09:53:09.000Z,68.3
2022-09-20T09:54:24.000Z,68.8
2022-09-20T09:55:40.000Z,67.1
2022-09-20T09:56:57.000Z,67.7
2022-09-20T09:58:13.000Z,68
2022-09-20T09:59:29.000Z,68.3
2022-09-20T10:00:45.000Z,68.3
2022-09-20T10:02:02.000Z,68.1
2022-09-20T10:03:17.000Z,68.4
2022-09-20T10:04:33.000Z,69.5
2022-09-20T10:05:49.000Z,70.1
2022-09-20T10:07:05.000Z,70.1
2022-09-20T10:08:20.000Z,67.8
2022-09-20T10:09:36.000Z,68.9
2022-09-20T10:10:52.000Z,69.3
2022-09-20T10:12:09.000Z,69.7
2022-09-20T10:13:25.000Z,70.5
2022-09-20T10:14:41.000Z,71.2
2022-09-20T10:15:57.000Z,70.3
2022-09-20T10:17:13.000Z,69.8
2022-09-20T10:18:30.000Z,69.6
2022-09-20T10:19:46.000Z,69.2
2022-09-20T10:21:02.000Z,69.4
2022-09-20T10:22:18.000Z,67.9
2022-09-20T10:23:35.000Z,66.9
2022-09-20T10:24:50.000Z,66.5
2022-09-20T10:26:06.000Z,67.7
2022-09-20T10:27:22.000Z,68.8
2022-09-20T10:28:39.000Z,69.1
2022-09-20T10:29:55.000Z,69.7
2022-09-20T10:31:11.000Z,70.8
2022-09-20T10:32:27.000Z,70.8
2022-09-20T10:33:44.000Z,70.7
2022-09-20T10:35:00.000Z,70.8
2022-09-20T10:36:16.000Z,69.5
2022-09-20T10:37:32.000Z,68.9
2022-09-20T10:38:48.000Z,68.8
2022-09-20T10:40:05.000Z,67.8
2022-09-20T10:41:20.000Z,66.9
2022-09-20T10:42:36.000Z,67.4
2022-09-20T10:43:51.000Z,67
2022-09-20T10:45:07.000Z,66.9
2022-09-20T10:46:22.000Z,66.9
2022-09-20T10:47:37.000Z,66.9
2022-09-20T10:48:53.000Z,65.8
2022-09-20T10:50:10.000Z,65.9
2022-09-20T10:51:26.000Z,64.6
2022-09-20T10:52:42.000Z,64.1
2022-09-20T10:53:58.000Z,63.5
2022-09-20T10:55:15.000Z,61.5
2022-09-20T10:56:31.000Z,62.5
2022-09-20T10:57:47.000Z,63.3
2022-09-20T10:59:03.000Z,64.3
2022-09-20T11:00:20.000Z,63.6
2022-09-20T11:01:36.000Z,62.2
2022-09-20T11:02:52.000Z,62.5
2022-09-20T11:04:07.000Z,62.8
2022-09-20T11:05:23.000Z,63.2
2022-09-20T11:06:40.000Z,61.4
2022-09-20T11:07:56.000Z,61
2022-09-20T11:09:12.000Z,60.5
2022-09-20T11:10:28.000Z,61.2
2022-09-20T11:11:45.000Z,60.6
2022-09-20T11:13:00.000Z,59.2
2022-09-20T11:14:15.000Z,59.4
2022-09-20T11:15:31.000Z,59.9
2022-09-20T11:16:48.000Z,59.5
2022-09-20T11:18:03.000Z,58.7
2022-09-20T11:19:18.000Z,59.3
2022-09-20T11:20:34.000Z,59.5
2022-09-20T11:21:51.000Z,60.3
2022-09-20T11:23:07.000Z,58.3
2022-09-20T11:24:23.000Z,58.2
2022-09-20T11:25:39.000Z,58.1
2022-09-20T11:26:56.000Z,57.9
2022-09-20T11:28:12.000Z,56.7
2022-09-20T11:29:28.000Z,58.1
2022-09-20T11:30:44.000Z,57.6
2022-09-20T11:32:00.000Z,58.7
2022-09-20T11:33:17.000Z,59.4
2022-09-20T11:34:33.000Z,58.3
2022-09-20T11:35:48.000Z,58.9
2022-09-20T11:37:04.000Z,58.9
2022-09-20T11:38:21.000Z,59
2022-09-20T11:39:37.000Z,59.1
2022-09-20T11:40:53.000Z,58.9
2022-09-20T11:42:09.000Z,59.3
2022-09-20T11:43:26.000Z,58.8
2022-09-20T11:44:41.000Z,58.5
2022-09-20T11:45:56.000Z,58.1
2022-09-20T11:47:11.000Z,58.3
2022-09-20T11:48:27.000Z,58.3
2022-09-20T11:49:43.000Z,58
2022-09-20T11:50:59.000Z,58.6
2022-09-20T11:52:15.000Z,57.9
2022-09-20T11:53:32.000Z,57.6
2022-09-20T11:54:48.000Z,56.3
2022-09-20T11:56:04.000Z,57.4
2022-09-20T11:57:20.000Z,55.7
2022-09-20T11:58:37.000Z,55.4
2022-09-20T11:59:53.000Z,57
2022-09-20T12:01:09.000Z,55.6
2022-09-20T12:02:25.000Z,56
2022-09-20T12:03:41.000Z,56.9
2022-09-20T12:04:57.000Z,57
2022-09-20T12:06:13.000Z,56.6
2022-09-20T12:07:29.000Z,56.9
2022-09-20T12:08:45.000Z,56.7
2022-09-20T12:10:02.000Z,57.5
2022-09-20T12:11:18.000Z,57
2022-09-20T12:12:34.000Z,56
2022-09-20T12:13:49.000Z,56
2022-09-20T12:15:05.000Z,55.5
2022-09-20T12:16:21.000Z,55.1
2022-09-20T12:17:36.000Z,56.1
2022-09-20T12:18:51.000Z,55.6
2022-09-20T12:20:07.000Z,55.2
2022-09-20T12:21:23.000Z,55.4
2022-09-20T12:22:39.000Z,56.5
2022-09-20T12:23:55.000Z,56.8
2022-09-20T12:25:12.000Z,57.1
2022-09-20T12:26:28.000Z,56.9
2022-09-20T12:27:44.000Z,56.3
2022-09-20T12:29:00.000Z,57.8
2022-09-20T12:30:16.000Z,58.3
2022-09-20T12:31:33.000Z,59.6
2022-09-20T12:32:49.000Z,60.7
2022-09-20T12:34:05.000Z,61.6
2022-09-20T12:35:21.000Z,61.5
2022-09-20T12:36:37.000Z,62.1
2022-09-20T12:37:53.000Z,62.6
2022-09-20T12:39:09.000Z,61.8
2022-09-20T12:40:25.000Z,62.4
2022-09-20T12:41:42.000Z,61.8
2022-09-20T12:42:58.000Z,61.9
2022-09-20T12:44:14.000Z,61.4
2022-09-20T12:45:30.000Z,60
2022-09-20T12:46:46.000Z,59.8
2022-09-20T12:48:01.000Z,60.4
2022-09-20T12:49:17.000Z,59.7
2022-09-20T12:50:33.000Z,60.8
2022-09-20T12:51:50.000Z,60.5
2022-09-20T12:53:05.000Z,61.1
2022-09-20T12:54:20.000Z,61.6
2022-09-20T12:55:36.000Z,60.5
2022-09-20T12:56:53.000Z,61.3
2022-09-20T12:58:09.000Z,60.5
2022-09-20T12:59:25.000Z,61
2022-09-20T13:00:41.000Z,61.3
2022-09-20T13:01:57.000Z,60.2
2022-09-20T13:03:14.000Z,60.2
2022-09-20T13:04:30.000Z,60.7
2022-09-20T13:05:46.000Z,59.9
2022-09-20T13:07:02.000Z,58.4
2022-09-20T13:08:19.000Z,57.8
2022-09-20T13:09:35.000Z,59.1
2022-09-20T13:10:50.000Z,59.5
2022-09-20T13:12:06.000Z,57.9
2022-09-20T13:13:23.000Z,56.2
2022-09-20T13:14:39.000Z,57.8
2022-09-20T13:15:55.000Z,57.3
2022-09-20T13:17:11.000Z,56.9
2022-09-20T13:18:27.000Z,56.1
2022-09-20T13:19:43.000Z,56.3
2022-09-20T13:20:58.000Z,57.4
2022-09-20T13:22:13.000Z,56.6
2022-09-20T13:23:29.000Z,57.7
2022-09-20T13:24:45.000Z,56.9
2022-09-20T13:26:01.000Z,56.3
2022-09-20T13:27:17.000Z,55
2022-09-20T13:28:33.000Z,55.8
2022-09-20T13:29:50.000Z,55.5
2022-09-20T13:31:06.000Z,54
2022-09-20T13:32:22.000Z,52.8
2022-09-20T13:33:38.000Z,53.2
2022-09-20T13:34:55.000Z,53
2022-09-20T13:36:11.000Z,54.3
2022-09-20T13:37:27.000Z,52.4
2022-09-20T13:38:43.000Z,53.6
2022-09-20T13:40:00.000Z,51.5
2022-09-20T13:41:15.000Z,51
2022-09-20T13:42:31.000Z,52
2022-09-20T13:43:47.000Z,51.9
2022-09-20T13:45:04.000Z,50.3
2022-09-20T13:46:20.000Z,50.3
2022-09-20T13:47:36.000Z,51.7
2022-09-20T13:48:51.000Z,52
2022-09-20T13:50:06.000Z,53.8
2022-09-20T13:51:23.000Z,52.5
2022-09-20T13:52:39.000Z,53.3
2022-09-20T13:53:55.000Z,49.4
2022-09-20T13:55:11.000Z,49.2
2022-09-20T13:56:27.000Z,50.4
2022-09-20T13:57:42.000Z,52.1
2022-09-20T13:58:58.000Z,54.1
2022-09-20T14:00:14.000Z,54.9
2022-09-20T14:01:31.000Z,54.4
2022-09-20T14:02:47.000Z,55.2
2022-09-20T14:04:03.000Z,55.7
2022-09-20T14:05:19.000Z,56.2
2022-09-20T14:06:36.000Z,56.3
2022-09-20T14:07:52.000Z,55.8
2022-09-20T14:09:08.000Z,55.8
2022-09-20T14:10:24.000Z,55.9
2022-09-20T14:11:41.000Z,56.6
2022-09-20T14:12:57.000Z,56.5
2022-09-20T14:14:12.000Z,56.1
2022-09-20T14:15:28.000Z,57.3
2022-09-20T14:16:44.000Z,58.7
2022-09-20T14:18:01.000Z,58.5
2022-09-20T14:19:17.000Z,58.7
2022-09-20T14:20:33.000Z,58.6
2022-09-20T14:21:49.000Z,59
2022-09-20T14:23:05.000Z,59.6
2022-09-20T14:24:20.000Z,60.2
2022-09-20T14:25:36.000Z,63.4
2022-09-20T14:26:51.000Z,66.6
2022-09-20T14:28:07.000Z,68.7
2022-09-20T14:29:23.000Z,69.6
2022-09-20T14:30:39.000Z,70.4
2022-09-20T14:31:55.000Z,72
2022-09-20T14:33:12.000Z,75.1
2022-09-20T14:34:28.000Z,76.4
2022-09-20T14:35:44.000Z,77.8
2022-09-20T14:37:00.000Z,80.3
2022-09-20T14:38:17.000Z,80
2022-09-20T14:39:33.000Z,80.9
2022-09-20T14:40:49.000Z,81.4
2022-09-20T14:42:05.000Z,80.4
2022-09-20T14:43:21.000Z,80.4
2022-09-20T14:44:37.000Z,80.8
2022-09-20T14:45:53.000Z,80.4
2022-09-20T14:47:09.000Z,80.1
2022-09-20T14:48:25.000Z,80.3
2022-09-20T14:49:42.000Z,79
2022-09-20T14:50:58.000Z,77.9
2022-09-20T14:52:14.000Z,77.8
2022-09-20T14:53:29.000Z,77.3
2022-09-20T14:54:45.000Z,77.5
2022-09-20T14:56:01.000Z,77
2022-09-20T14:57:16.000Z,76.4
2022-09-20T14:58:31.000Z,76.3
2022-09-20T14:59:48.000Z,76.1
2022-09-20T15:01:04.000Z,76.4
2022-09-20T15:02:20.000Z,76.5
2022-09-20T15:03:36.000Z,76.6
2022-09-20T15:04:53.000Z,76
2022-09-20T15:06:09.000Z,76.1
2022-09-20T15:07:25.000Z,76.6
2022-09-20T15:08:41.000Z,76.1
2022-09-20T15:09:57.000Z,76.2
2022-09-20T15:11:14.000Z,74.9
2022-09-20T15:12:30.000Z,75.6
2022-09-20T15:13:46.000Z,75.7
2022-09-20T15:15:01.000Z,75.7
2022-09-20T15:16:18.000Z,75.8
2022-09-20T15:17:34.000Z,75.5
2022-09-20T15:18:50.000Z,74.3
2022-09-20T15:20:06.000Z,74
2022-09-20T15:21:23.000Z,74.5
2022-09-20T15:22:39.000Z,74.3
2022-09-20T15:23:54.000Z,73.9
2022-09-20T15:25:09.000Z,74.4
2022-09-20T15:26:26.000Z,74.5
2022-09-20T15:27:41.000Z,74.5
2022-09-20T15:28:56.000Z,73.8
2022-09-20T15:30:12.000Z,73.6
2022-09-20T15:31:29.000Z,73.4
2022-09-20T15:32:45.000Z,74.4
2022-09-20T15:34:01.000Z,75
2022-09-20T15:35:17.000Z,75.1
2022-09-20T15:36:34.000Z,72.9
2022-09-20T15:37:50.000Z,68.4
2022-09-20T15:39:06.000Z,68.1
2022-09-20T15:40:22.000Z,69.6
2022-09-20T15:41:38.000Z,70
2022-09-20T15:42:55.000Z,68.7
2022-09-20T15:44:11.000Z,70.1
2022-09-20T15:45:26.000Z,70.1
2022-09-20T15:46:42.000Z,68.8
2022-09-20T15:47:59.000Z,66
2022-09-20T15:49:15.000Z,65
2022-09-20T15:50:31.000Z,61.6
2022-09-20T15:51:47.000Z,60.2
2022-09-20T15:53:04.000Z,59.2
2022-09-20T15:54:19.000Z,57.8
2022-09-20T15:55:34.000Z,58.5
2022-09-20T15:56:49.000Z,59
2022-09-20T15:58:05.000Z,59.1
2022-09-20T15:59:21.000Z,60.9
2022-09-20T16:00:37.000Z,62.2
2022-09-20T16:01:53.000Z,63.7
2022-09-20T16:03:10.000Z,63.9
2022-09-20T16:04:26.000Z,63
2022-09-20T16:05:42.000Z,60.8
2022-09-20T16:06:58.000Z,58.9
2022-09-20T16:08:14.000Z,57.3
2022-09-20T16:09:31.000Z,56.7
2022-09-20T16:10:47.000Z,56.2
2022-09-20T16:12:03.000Z,55.2
2022-09-20T16:13:19.000Z,54.6
2022-09-20T16:14:35.000Z,55.5
2022-09-20T16:15:51.000Z,57.3
2022-09-20T16:17:07.000Z,57.4
2022-09-20T16:18:23.000Z,55.7
2022-09-20T16:19:40.000Z,53.9
2022-09-20T16:20:56.000Z,53.3
2022-09-20T16:22:12.000Z,55.1
2022-09-20T16:23:27.000Z,53.8
2022-09-20T16:24:43.000Z,53.5
2022-09-20T16:25:58.000Z,53.3
2022-09-20T16:27:13.000Z,52.8
2022-09-20T16:28:29.000Z,52.4
2022-09-20T16:29:46.000Z,55
2022-09-20T16:31:02.000Z,57.4
2022-09-20T16:32:18.000Z,59.9
2022-09-20T16:33:34.000Z,61.2
2022-09-20T16:34:50.000Z,63.1
2022-09-20T16:36:06.000Z,64.9
2022-09-20T16:37:22.000Z,65.9
2022-09-20T16:38:38.000Z,68.7
2022-09-20T16:39:54.000Z,69.8
2022-09-20T16:41:11.000Z,68.7
2022-09-20T16:42:27.000Z,69.6
2022-09-20T16:43:43.000Z,70.5
2022-09-20T16:44:59.000Z,71
2022-09-20T16:46:16.000Z,72
2022-09-20T16:47:32.000Z,72.7
2022-09-20T16:48:48.000Z,73.2
2022-09-20T16:50:04.000Z,73.7
2022-09-20T16:51:20.000Z,74.4
2022-09-20T16:52:35.000Z,74.2
2022-09-20T16:53:50.000Z,74.4
2022-09-20T16:55:06.000Z,74.9
2022-09-20T16:56:22.000Z,74.7
2022-09-20T16:57:37.000Z,75.4
2022-09-20T16:58:53.000Z,77.1
2022-09-20T17:00:09.000Z,76.5
2022-09-20T17:01:26.000Z,77
2022-09-20T17:02:42.000Z,77.3
2022-09-20T17:03:58.000Z,77.3